sensor_id;sensor_type;location;lat;lon;timestamp;P1;durP1;ratioP1;P2;durP2;ratioP2
13303;SDS011;6720;51.958;4.540;2022-11-20T00:00:55;16.43;;;12.40;;
13303;SDS011;6720;51.958;4.540;2022-11-20T00:03:21;14.60;;;12.07;;
13303;SDS011;6720;51.958;4.540;2022-11-20T00:05:47;16.50;;;12.77;;
13303;SDS011;6720;51.958;4.540;2022-11-20T00:08:12;16.10;;;12.43;;
13303;SDS011;6720;51.958;4.540;2022-11-20T00:10:38;16.07;;;12.33;;
13303;SDS011;6720;51.958;4.540;2022-11-20T00:13:05;17.90;;;12.23;;
13303;SDS011;6720;51.958;4.540;2022-11-20T00:15:31;15.00;;;12.03;;
13303;SDS011;6720;51.958;4.540;2022-11-20T00:17:56;15.80;;;12.30;;
13303;SDS011;6720;51.958;4.540;2022-11-20T00:20:22;15.37;;;12.03;;
13303;SDS011;6720;51.958;4.540;2022-11-20T00:22:47;17.60;;;13.27;;
13303;SDS011;6720;51.958;4.540;2022-11-20T00:25:14;17.47;;;13.40;;
13303;SDS011;6720;51.958;4.540;2022-11-20T00:27:40;16.90;;;13.63;;
13303;SDS011;6720;51.958;4.540;2022-11-20T00:30:06;16.90;;;12.07;;
13303;SDS011;6720;51.958;4.540;2022-11-20T00:32:32;16.53;;;13.13;;
13303;SDS011;6720;51.958;4.540;2022-11-20T00:34:58;17.57;;;12.30;;
13303;SDS011;6720;51.958;4.540;2022-11-20T00:37:23;16.07;;;12.70;;
13303;SDS011;6720;51.958;4.540;2022-11-20T00:39:48;15.20;;;12.23;;
13303;SDS011;6720;51.958;4.540;2022-11-20T00:42:14;15.47;;;12.77;;
13303;SDS011;6720;51.958;4.540;2022-11-20T00:44:39;17.83;;;13.07;;
13303;SDS011;6720;51.958;4.540;2022-11-20T00:47:04;16.07;;;12.47;;
13303;SDS011;6720;51.958;4.540;2022-11-20T00:49:30;16.00;;;13.07;;
13303;SDS011;6720;51.958;4.540;2022-11-20T00:51:55;15.10;;;12.80;;
13303;SDS011;6720;51.958;4.540;2022-11-20T00:54:21;17.03;;;13.23;;
13303;SDS011;6720;51.958;4.540;2022-11-20T00:56:46;18.10;;;13.60;;
13303;SDS011;6720;51.958;4.540;2022-11-20T00:59:11;18.73;;;13.40;;
13303;SDS011;6720;51.958;4.540;2022-11-20T01:01:37;17.57;;;13.53;;
13303;SDS011;6720;51.958;4.540;2022-11-20T01:04:03;18.10;;;13.83;;
13303;SDS011;6720;51.958;4.540;2022-11-20T01:06:29;16.60;;;12.80;;
13303;SDS011;6720;51.958;4.540;2022-11-20T01:08:58;16.00;;;12.67;;
13303;SDS011;6720;51.958;4.540;2022-11-20T01:11:32;16.50;;;12.93;;
13303;SDS011;6720;51.958;4.540;2022-11-20T01:14:00;18.73;;;13.33;;
13303;SDS011;6720;51.958;4.540;2022-11-20T01:16:28;16.97;;;13.27;;
13303;SDS011;6720;51.958;4.540;2022-11-20T01:18:56;15.93;;;13.33;;
13303;SDS011;6720;51.958;4.540;2022-11-20T01:21:27;18.00;;;13.63;;
13303;SDS011;6720;51.958;4.540;2022-11-20T01:23:55;18.20;;;12.93;;
13303;SDS011;6720;51.958;4.540;2022-11-20T01:26:23;16.83;;;12.77;;
13303;SDS011;6720;51.958;4.540;2022-11-20T01:28:50;16.90;;;12.93;;
13303;SDS011;6720;51.958;4.540;2022-11-20T01:31:17;18.87;;;13.67;;
13303;SDS011;6720;51.958;4.540;2022-11-20T01:33:44;18.43;;;13.70;;
13303;SDS011;6720;51.958;4.540;2022-11-20T01:36:11;17.90;;;14.20;;
13303;SDS011;6720;51.958;4.540;2022-11-20T01:38:37;19.43;;;15.17;;
13303;SDS011;6720;51.958;4.540;2022-11-20T01:41:03;19.93;;;15.03;;
13303;SDS011;6720;51.958;4.540;2022-11-20T01:43:29;20.03;;;15.20;;
13303;SDS011;6720;51.958;4.540;2022-11-20T01:46:02;17.87;;;14.43;;
13303;SDS011;6720;51.958;4.540;2022-11-20T01:51:24;19.47;;;13.93;;
13303;SDS011;6720;51.958;4.540;2022-11-20T01:53:55;21.40;;;14.13;;
13303;SDS011;6720;51.958;4.540;2022-11-20T01:56:23;17.63;;;13.97;;
13303;SDS011;6720;51.958;4.540;2022-11-20T01:58:51;17.83;;;13.60;;
13303;SDS011;6720;51.958;4.540;2022-11-20T02:01:18;17.43;;;13.07;;
13303;SDS011;6720;51.958;4.540;2022-11-20T02:03:44;19.43;;;13.50;;
13303;SDS011;6720;51.958;4.540;2022-11-20T02:08:49;19.77;;;14.23;;
13303;SDS011;6720;51.958;4.540;2022-11-20T02:11:15;18.73;;;13.27;;
13303;SDS011;6720;51.958;4.540;2022-11-20T02:13:40;18.27;;;13.40;;
13303;SDS011;6720;51.958;4.540;2022-11-20T02:16:30;17.90;;;13.40;;
13303;SDS011;6720;51.958;4.540;2022-11-20T02:19:00;17.63;;;13.27;;
13303;SDS011;6720;51.958;4.540;2022-11-20T02:21:49;19.60;;;13.97;;
13303;SDS011;6720;51.958;4.540;2022-11-20T02:24:31;19.87;;;14.00;;
13303;SDS011;6720;51.958;4.540;2022-11-20T02:26:58;18.50;;;14.83;;
13303;SDS011;6720;51.958;4.540;2022-11-20T02:29:37;18.83;;;13.87;;
13303;SDS011;6720;51.958;4.540;2022-11-20T02:32:06;18.03;;;13.67;;
13303;SDS011;6720;51.958;4.540;2022-11-20T02:34:31;18.23;;;13.80;;
13303;SDS011;6720;51.958;4.540;2022-11-20T02:36:57;18.70;;;13.80;;
13303;SDS011;6720;51.958;4.540;2022-11-20T02:39:24;19.50;;;14.23;;
13303;SDS011;6720;51.958;4.540;2022-11-20T02:41:52;18.37;;;14.03;;
13303;SDS011;6720;51.958;4.540;2022-11-20T02:44:19;21.03;;;14.07;;
13303;SDS011;6720;51.958;4.540;2022-11-20T02:46:45;16.87;;;13.63;;
13303;SDS011;6720;51.958;4.540;2022-11-20T02:49:11;17.37;;;13.83;;
13303;SDS011;6720;51.958;4.540;2022-11-20T02:51:37;18.00;;;14.40;;
13303;SDS011;6720;51.958;4.540;2022-11-20T02:54:02;17.23;;;13.90;;
13303;SDS011;6720;51.958;4.540;2022-11-20T02:56:28;18.10;;;13.53;;
13303;SDS011;6720;51.958;4.540;2022-11-20T02:58:55;18.87;;;14.20;;
13303;SDS011;6720;51.958;4.540;2022-11-20T03:01:20;21.87;;;15.77;;
13303;SDS011;6720;51.958;4.540;2022-11-20T03:03:46;17.53;;;14.03;;
13303;SDS011;6720;51.958;4.540;2022-11-20T03:06:13;20.63;;;14.43;;
13303;SDS011;6720;51.958;4.540;2022-11-20T03:08:39;18.93;;;14.70;;
13303;SDS011;6720;51.958;4.540;2022-11-20T03:11:06;19.57;;;13.67;;
13303;SDS011;6720;51.958;4.540;2022-11-20T03:13:32;20.33;;;14.27;;
13303;SDS011;6720;51.958;4.540;2022-11-20T03:15:58;20.50;;;15.00;;
13303;SDS011;6720;51.958;4.540;2022-11-20T03:18:29;17.87;;;13.33;;
13303;SDS011;6720;51.958;4.540;2022-11-20T03:20:57;19.60;;;14.43;;
13303;SDS011;6720;51.958;4.540;2022-11-20T03:23:23;17.03;;;14.13;;
13303;SDS011;6720;51.958;4.540;2022-11-20T03:25:48;20.27;;;14.47;;
13303;SDS011;6720;51.958;4.540;2022-11-20T03:28:14;20.27;;;14.57;;
13303;SDS011;6720;51.958;4.540;2022-11-20T03:30:39;20.07;;;14.03;;
13303;SDS011;6720;51.958;4.540;2022-11-20T03:33:05;17.03;;;13.57;;
13303;SDS011;6720;51.958;4.540;2022-11-20T03:35:30;21.30;;;14.37;;
13303;SDS011;6720;51.958;4.540;2022-11-20T03:37:56;17.53;;;14.00;;
13303;SDS011;6720;51.958;4.540;2022-11-20T03:40:22;19.03;;;13.57;;
13303;SDS011;6720;51.958;4.540;2022-11-20T03:42:47;19.57;;;13.70;;
13303;SDS011;6720;51.958;4.540;2022-11-20T03:45:13;20.03;;;14.57;;
13303;SDS011;6720;51.958;4.540;2022-11-20T03:47:40;20.03;;;14.63;;
13303;SDS011;6720;51.958;4.540;2022-11-20T03:50:05;18.93;;;13.63;;
13303;SDS011;6720;51.958;4.540;2022-11-20T03:52:31;20.30;;;14.03;;
13303;SDS011;6720;51.958;4.540;2022-11-20T03:54:56;18.67;;;13.83;;
13303;SDS011;6720;51.958;4.540;2022-11-20T03:57:22;18.73;;;13.90;;
13303;SDS011;6720;51.958;4.540;2022-11-20T03:59:47;19.90;;;14.47;;
13303;SDS011;6720;51.958;4.540;2022-11-20T04:02:12;17.53;;;14.23;;
13303;SDS011;6720;51.958;4.540;2022-11-20T04:04:38;19.13;;;14.60;;
13303;SDS011;6720;51.958;4.540;2022-11-20T04:07:03;17.40;;;13.50;;
13303;SDS011;6720;51.958;4.540;2022-11-20T04:09:28;18.07;;;14.30;;
13303;SDS011;6720;51.958;4.540;2022-11-20T04:11:54;18.07;;;13.50;;
13303;SDS011;6720;51.958;4.540;2022-11-20T04:14:19;19.30;;;13.87;;
13303;SDS011;6720;51.958;4.540;2022-11-20T04:16:45;17.73;;;13.83;;
13303;SDS011;6720;51.958;4.540;2022-11-20T04:19:11;17.53;;;14.40;;
13303;SDS011;6720;51.958;4.540;2022-11-20T04:21:38;19.73;;;13.83;;
13303;SDS011;6720;51.958;4.540;2022-11-20T04:24:03;21.07;;;15.47;;
13303;SDS011;6720;51.958;4.540;2022-11-20T04:26:29;19.20;;;14.73;;
13303;SDS011;6720;51.958;4.540;2022-11-20T04:28:55;20.30;;;14.37;;
13303;SDS011;6720;51.958;4.540;2022-11-20T04:31:24;19.80;;;14.20;;
13303;SDS011;6720;51.958;4.540;2022-11-20T04:33:51;18.53;;;14.30;;
13303;SDS011;6720;51.958;4.540;2022-11-20T04:36:22;20.07;;;15.57;;
13303;SDS011;6720;51.958;4.540;2022-11-20T04:38:52;19.27;;;14.37;;
13303;SDS011;6720;51.958;4.540;2022-11-20T04:41:20;19.57;;;14.50;;
13303;SDS011;6720;51.958;4.540;2022-11-20T04:43:50;17.70;;;13.57;;
13303;SDS011;6720;51.958;4.540;2022-11-20T04:46:17;17.70;;;13.33;;
13303;SDS011;6720;51.958;4.540;2022-11-20T04:48:43;18.93;;;13.63;;
13303;SDS011;6720;51.958;4.540;2022-11-20T04:51:09;18.57;;;14.27;;
13303;SDS011;6720;51.958;4.540;2022-11-20T04:53:34;18.37;;;13.73;;
13303;SDS011;6720;51.958;4.540;2022-11-20T04:56:00;19.33;;;14.20;;
13303;SDS011;6720;51.958;4.540;2022-11-20T04:58:27;21.53;;;15.47;;
13303;SDS011;6720;51.958;4.540;2022-11-20T05:00:53;20.00;;;14.13;;
13303;SDS011;6720;51.958;4.540;2022-11-20T05:03:18;19.57;;;14.30;;
13303;SDS011;6720;51.958;4.540;2022-11-20T05:05:43;18.63;;;14.47;;
13303;SDS011;6720;51.958;4.540;2022-11-20T05:08:09;21.10;;;14.70;;
13303;SDS011;6720;51.958;4.540;2022-11-20T05:10:34;20.57;;;15.00;;
13303;SDS011;6720;51.958;4.540;2022-11-20T05:13:00;19.93;;;14.87;;
13303;SDS011;6720;51.958;4.540;2022-11-20T05:15:25;21.33;;;13.90;;
13303;SDS011;6720;51.958;4.540;2022-11-20T05:17:51;20.87;;;14.57;;
13303;SDS011;6720;51.958;4.540;2022-11-20T05:20:17;21.03;;;14.83;;
13303;SDS011;6720;51.958;4.540;2022-11-20T05:22:43;20.67;;;14.53;;
13303;SDS011;6720;51.958;4.540;2022-11-20T05:25:09;20.00;;;14.40;;
13303;SDS011;6720;51.958;4.540;2022-11-20T05:27:35;18.37;;;14.13;;
13303;SDS011;6720;51.958;4.540;2022-11-20T05:30:00;20.50;;;14.93;;
13303;SDS011;6720;51.958;4.540;2022-11-20T05:32:26;19.20;;;14.50;;
13303;SDS011;6720;51.958;4.540;2022-11-20T05:34:51;20.20;;;14.73;;
13303;SDS011;6720;51.958;4.540;2022-11-20T05:37:17;20.20;;;14.70;;
13303;SDS011;6720;51.958;4.540;2022-11-20T05:39:43;18.63;;;14.23;;
13303;SDS011;6720;51.958;4.540;2022-11-20T05:42:08;21.33;;;15.27;;
13303;SDS011;6720;51.958;4.540;2022-11-20T05:44:52;19.93;;;14.47;;
13303;SDS011;6720;51.958;4.540;2022-11-20T05:47:17;19.70;;;14.60;;
13303;SDS011;6720;51.958;4.540;2022-11-20T05:49:42;21.60;;;15.40;;
13303;SDS011;6720;51.958;4.540;2022-11-20T05:52:08;20.47;;;15.20;;
13303;SDS011;6720;51.958;4.540;2022-11-20T05:54:33;19.43;;;14.90;;
13303;SDS011;6720;51.958;4.540;2022-11-20T05:56:59;20.40;;;14.67;;
13303;SDS011;6720;51.958;4.540;2022-11-20T05:59:24;23.33;;;15.80;;
13303;SDS011;6720;51.958;4.540;2022-11-20T06:01:50;19.53;;;14.47;;
13303;SDS011;6720;51.958;4.540;2022-11-20T06:04:15;18.70;;;13.93;;
13303;SDS011;6720;51.958;4.540;2022-11-20T06:06:41;22.23;;;15.13;;
13303;SDS011;6720;51.958;4.540;2022-11-20T06:09:06;20.10;;;14.43;;
13303;SDS011;6720;51.958;4.540;2022-11-20T06:11:31;21.33;;;15.07;;
13303;SDS011;6720;51.958;4.540;2022-11-20T06:13:57;21.33;;;15.47;;
13303;SDS011;6720;51.958;4.540;2022-11-20T06:16:22;20.20;;;14.80;;
13303;SDS011;6720;51.958;4.540;2022-11-20T06:18:47;20.10;;;15.43;;
13303;SDS011;6720;51.958;4.540;2022-11-20T06:21:14;19.00;;;14.80;;
13303;SDS011;6720;51.958;4.540;2022-11-20T06:23:43;19.43;;;14.80;;
13303;SDS011;6720;51.958;4.540;2022-11-20T06:26:12;21.33;;;15.47;;
13303;SDS011;6720;51.958;4.540;2022-11-20T06:28:40;21.63;;;15.47;;
13303;SDS011;6720;51.958;4.540;2022-11-20T06:31:05;20.77;;;15.40;;
13303;SDS011;6720;51.958;4.540;2022-11-20T06:33:32;20.77;;;15.00;;
13303;SDS011;6720;51.958;4.540;2022-11-20T06:35:58;22.10;;;16.53;;
13303;SDS011;6720;51.958;4.540;2022-11-20T06:38:25;21.80;;;16.10;;
13303;SDS011;6720;51.958;4.540;2022-11-20T06:40:51;21.47;;;16.03;;
13303;SDS011;6720;51.958;4.540;2022-11-20T06:43:17;23.90;;;15.67;;
13303;SDS011;6720;51.958;4.540;2022-11-20T06:45:42;22.30;;;16.23;;
13303;SDS011;6720;51.958;4.540;2022-11-20T06:48:08;21.50;;;14.73;;
13303;SDS011;6720;51.958;4.540;2022-11-20T06:50:34;22.07;;;15.37;;
13303;SDS011;6720;51.958;4.540;2022-11-20T06:53:01;20.37;;;15.00;;
13303;SDS011;6720;51.958;4.540;2022-11-20T06:55:28;23.33;;;15.40;;
13303;SDS011;6720;51.958;4.540;2022-11-20T06:57:54;21.00;;;15.10;;
13303;SDS011;6720;51.958;4.540;2022-11-20T07:00:20;20.77;;;15.60;;
13303;SDS011;6720;51.958;4.540;2022-11-20T07:02:46;20.93;;;15.50;;
13303;SDS011;6720;51.958;4.540;2022-11-20T07:05:12;21.07;;;15.40;;
13303;SDS011;6720;51.958;4.540;2022-11-20T07:07:37;25.10;;;16.30;;
13303;SDS011;6720;51.958;4.540;2022-11-20T07:10:03;22.10;;;15.40;;
13303;SDS011;6720;51.958;4.540;2022-11-20T07:12:29;20.17;;;15.00;;
13303;SDS011;6720;51.958;4.540;2022-11-20T07:14:54;21.33;;;15.23;;
13303;SDS011;6720;51.958;4.540;2022-11-20T07:17:19;21.60;;;16.20;;
13303;SDS011;6720;51.958;4.540;2022-11-20T07:19:45;19.97;;;15.03;;
13303;SDS011;6720;51.958;4.540;2022-11-20T07:22:10;22.53;;;16.57;;
13303;SDS011;6720;51.958;4.540;2022-11-20T07:24:36;22.37;;;15.87;;
13303;SDS011;6720;51.958;4.540;2022-11-20T07:27:01;23.10;;;16.63;;
13303;SDS011;6720;51.958;4.540;2022-11-20T07:29:26;22.13;;;16.30;;
13303;SDS011;6720;51.958;4.540;2022-11-20T07:31:52;24.43;;;16.40;;
13303;SDS011;6720;51.958;4.540;2022-11-20T07:34:17;21.47;;;16.40;;
13303;SDS011;6720;51.958;4.540;2022-11-20T07:36:42;23.57;;;17.23;;
13303;SDS011;6720;51.958;4.540;2022-11-20T07:39:08;23.77;;;17.53;;
13303;SDS011;6720;51.958;4.540;2022-11-20T07:41:33;23.67;;;17.27;;
13303;SDS011;6720;51.958;4.540;2022-11-20T07:43:58;23.60;;;17.37;;
13303;SDS011;6720;51.958;4.540;2022-11-20T07:46:24;25.10;;;16.60;;
13303;SDS011;6720;51.958;4.540;2022-11-20T07:48:50;21.40;;;16.57;;
13303;SDS011;6720;51.958;4.540;2022-11-20T07:51:15;25.47;;;17.67;;
13303;SDS011;6720;51.958;4.540;2022-11-20T07:53:40;21.73;;;16.87;;
13303;SDS011;6720;51.958;4.540;2022-11-20T07:56:06;23.77;;;17.23;;
13303;SDS011;6720;51.958;4.540;2022-11-20T07:58:31;24.27;;;17.10;;
13303;SDS011;6720;51.958;4.540;2022-11-20T08:01:05;23.43;;;17.53;;
13303;SDS011;6720;51.958;4.540;2022-11-20T08:03:31;23.60;;;17.30;;
13303;SDS011;6720;51.958;4.540;2022-11-20T08:06:00;22.43;;;17.17;;
13303;SDS011;6720;51.958;4.540;2022-11-20T08:08:26;23.97;;;16.80;;
13303;SDS011;6720;51.958;4.540;2022-11-20T08:10:52;21.10;;;17.13;;
13303;SDS011;6720;51.958;4.540;2022-11-20T08:13:38;24.47;;;18.87;;
13303;SDS011;6720;51.958;4.540;2022-11-20T08:16:22;22.23;;;16.87;;
13303;SDS011;6720;51.958;4.540;2022-11-20T08:18:47;26.10;;;18.03;;
13303;SDS011;6720;51.958;4.540;2022-11-20T08:21:12;23.00;;;18.23;;
13303;SDS011;6720;51.958;4.540;2022-11-20T08:23:38;24.27;;;17.57;;
13303;SDS011;6720;51.958;4.540;2022-11-20T08:26:03;24.70;;;17.70;;
13303;SDS011;6720;51.958;4.540;2022-11-20T08:28:29;22.93;;;17.50;;
13303;SDS011;6720;51.958;4.540;2022-11-20T08:30:58;24.90;;;17.97;;
13303;SDS011;6720;51.958;4.540;2022-11-20T08:33:24;25.00;;;18.27;;
13303;SDS011;6720;51.958;4.540;2022-11-20T08:35:50;25.03;;;18.13;;
13303;SDS011;6720;51.958;4.540;2022-11-20T08:38:15;24.43;;;19.00;;
13303;SDS011;6720;51.958;4.540;2022-11-20T08:40:41;22.60;;;17.10;;
13303;SDS011;6720;51.958;4.540;2022-11-20T08:43:26;25.27;;;18.13;;
13303;SDS011;6720;51.958;4.540;2022-11-20T08:45:51;23.77;;;18.17;;
13303;SDS011;6720;51.958;4.540;2022-11-20T08:48:17;24.40;;;18.97;;
13303;SDS011;6720;51.958;4.540;2022-11-20T08:50:42;24.73;;;18.13;;
13303;SDS011;6720;51.958;4.540;2022-11-20T08:53:08;25.13;;;17.63;;
13303;SDS011;6720;51.958;4.540;2022-11-20T08:55:33;24.13;;;18.10;;
13303;SDS011;6720;51.958;4.540;2022-11-20T08:58:03;24.73;;;18.57;;
13303;SDS011;6720;51.958;4.540;2022-11-20T09:00:29;26.33;;;20.03;;
13303;SDS011;6720;51.958;4.540;2022-11-20T09:02:55;24.43;;;18.50;;
13303;SDS011;6720;51.958;4.540;2022-11-20T09:05:20;24.77;;;18.90;;
13303;SDS011;6720;51.958;4.540;2022-11-20T09:07:45;24.73;;;19.03;;
13303;SDS011;6720;51.958;4.540;2022-11-20T09:10:11;26.90;;;19.07;;
13303;SDS011;6720;51.958;4.540;2022-11-20T09:12:36;28.07;;;20.13;;
13303;SDS011;6720;51.958;4.540;2022-11-20T09:15:02;28.00;;;19.40;;
13303;SDS011;6720;51.958;4.540;2022-11-20T09:17:27;23.53;;;19.00;;
13303;SDS011;6720;51.958;4.540;2022-11-20T09:19:53;26.57;;;18.80;;
13303;SDS011;6720;51.958;4.540;2022-11-20T09:22:18;24.97;;;18.60;;
13303;SDS011;6720;51.958;4.540;2022-11-20T09:24:43;27.27;;;19.90;;
13303;SDS011;6720;51.958;4.540;2022-11-20T09:27:09;28.63;;;20.53;;
13303;SDS011;6720;51.958;4.540;2022-11-20T09:29:34;25.27;;;19.23;;
13303;SDS011;6720;51.958;4.540;2022-11-20T09:32:00;28.93;;;19.87;;
13303;SDS011;6720;51.958;4.540;2022-11-20T09:34:25;29.27;;;21.17;;
13303;SDS011;6720;51.958;4.540;2022-11-20T09:36:51;29.37;;;20.33;;
13303;SDS011;6720;51.958;4.540;2022-11-20T09:39:17;28.30;;;19.27;;
13303;SDS011;6720;51.958;4.540;2022-11-20T09:44:28;26.63;;;20.77;;
13303;SDS011;6720;51.958;4.540;2022-11-20T09:47:08;30.00;;;21.87;;
13303;SDS011;6720;51.958;4.540;2022-11-20T09:54:48;31.00;;;21.27;;
13303;SDS011;6720;51.958;4.540;2022-11-20T09:57:17;28.63;;;20.57;;
13303;SDS011;6720;51.958;4.540;2022-11-20T09:59:48;30.23;;;20.67;;
13303;SDS011;6720;51.958;4.540;2022-11-20T10:02:17;31.73;;;21.10;;
13303;SDS011;6720;51.958;4.540;2022-11-20T10:05:06;31.33;;;21.40;;
13303;SDS011;6720;51.958;4.540;2022-11-20T10:10:17;29.87;;;21.60;;
13303;SDS011;6720;51.958;4.540;2022-11-20T10:23:35;33.17;;;21.63;;
13303;SDS011;6720;51.958;4.540;2022-11-20T10:26:25;28.33;;;21.17;;
13303;SDS011;6720;51.958;4.540;2022-11-20T10:31:41;27.70;;;20.10;;
13303;SDS011;6720;51.958;4.540;2022-11-20T10:37:15;29.47;;;21.57;;
13303;SDS011;6720;51.958;4.540;2022-11-20T10:42:56;31.30;;;21.63;;
13303;SDS011;6720;51.958;4.540;2022-11-20T10:47:54;32.77;;;21.63;;
13303;SDS011;6720;51.958;4.540;2022-11-20T10:50:26;30.50;;;21.57;;
13303;SDS011;6720;51.958;4.540;2022-11-20T10:53:05;29.73;;;21.43;;
13303;SDS011;6720;51.958;4.540;2022-11-20T10:55:58;29.87;;;21.70;;
13303;SDS011;6720;51.958;4.540;2022-11-20T11:01:18;32.33;;;22.53;;
13303;SDS011;6720;51.958;4.540;2022-11-20T11:03:49;33.63;;;23.40;;
13303;SDS011;6720;51.958;4.540;2022-11-20T11:06:32;31.57;;;22.73;;
13303;SDS011;6720;51.958;4.540;2022-11-20T11:09:06;30.97;;;22.63;;
13303;SDS011;6720;51.958;4.540;2022-11-20T11:11:37;33.87;;;24.33;;
13303;SDS011;6720;51.958;4.540;2022-11-20T11:14:12;33.93;;;23.30;;
13303;SDS011;6720;51.958;4.540;2022-11-20T11:16:55;34.90;;;24.13;;
13303;SDS011;6720;51.958;4.540;2022-11-20T11:19:22;34.53;;;24.57;;
13303;SDS011;6720;51.958;4.540;2022-11-20T11:21:50;40.20;;;28.23;;
13303;SDS011;6720;51.958;4.540;2022-11-20T11:24:25;41.00;;;26.33;;
13303;SDS011;6720;51.958;4.540;2022-11-20T11:26:55;39.07;;;26.43;;
13303;SDS011;6720;51.958;4.540;2022-11-20T11:29:23;36.90;;;25.90;;
13303;SDS011;6720;51.958;4.540;2022-11-20T11:32:02;45.77;;;30.63;;
13303;SDS011;6720;51.958;4.540;2022-11-20T11:34:31;47.80;;;29.83;;
13303;SDS011;6720;51.958;4.540;2022-11-20T11:36:58;42.03;;;26.30;;
13303;SDS011;6720;51.958;4.540;2022-11-20T11:39:26;36.33;;;24.43;;
13303;SDS011;6720;51.958;4.540;2022-11-20T11:41:53;42.40;;;27.60;;
13303;SDS011;6720;51.958;4.540;2022-11-20T11:47:29;40.70;;;25.77;;
13303;SDS011;6720;51.958;4.540;2022-11-20T11:52:46;36.67;;;25.07;;
13303;SDS011;6720;51.958;4.540;2022-11-20T11:55:14;40.97;;;27.30;;
13303;SDS011;6720;51.958;4.540;2022-11-20T11:57:49;38.97;;;24.97;;
13303;SDS011;6720;51.958;4.540;2022-11-20T12:00:17;36.93;;;24.23;;
13303;SDS011;6720;51.958;4.540;2022-11-20T12:05:21;41.57;;;25.80;;
13303;SDS011;6720;51.958;4.540;2022-11-20T12:08:03;44.07;;;28.93;;
13303;SDS011;6720;51.958;4.540;2022-11-20T12:13:30;43.63;;;28.13;;
13303;SDS011;6720;51.958;4.540;2022-11-20T12:15:57;41.33;;;26.37;;
13303;SDS011;6720;51.958;4.540;2022-11-20T12:18:23;41.03;;;26.47;;
13303;SDS011;6720;51.958;4.540;2022-11-20T12:21:08;41.97;;;26.97;;
13303;SDS011;6720;51.958;4.540;2022-11-20T12:23:40;44.67;;;26.23;;
13303;SDS011;6720;51.958;4.540;2022-11-20T12:26:10;40.23;;;25.83;;
13303;SDS011;6720;51.958;4.540;2022-11-20T12:29:05;41.33;;;26.53;;
13303;SDS011;6720;51.958;4.540;2022-11-20T12:35:17;41.60;;;27.97;;
13303;SDS011;6720;51.958;4.540;2022-11-20T12:37:44;43.77;;;27.37;;
13303;SDS011;6720;51.958;4.540;2022-11-20T12:40:24;43.33;;;27.73;;
13303;SDS011;6720;51.958;4.540;2022-11-20T12:42:59;44.53;;;27.87;;
13303;SDS011;6720;51.958;4.540;2022-11-20T12:48:31;50.07;;;31.17;;
13303;SDS011;6720;51.958;4.540;2022-11-20T12:51:08;41.83;;;27.30;;
13303;SDS011;6720;51.958;4.540;2022-11-20T13:01:52;48.73;;;27.83;;
13303;SDS011;6720;51.958;4.540;2022-11-20T13:07:05;46.30;;;28.47;;
13303;SDS011;6720;51.958;4.540;2022-11-20T13:09:32;44.17;;;27.50;;
13303;SDS011;6720;51.958;4.540;2022-11-20T13:12:06;43.10;;;28.70;;
13303;SDS011;6720;51.958;4.540;2022-11-20T13:14:40;49.67;;;29.57;;
13303;SDS011;6720;51.958;4.540;2022-11-20T13:19:54;45.53;;;28.57;;
13303;SDS011;6720;51.958;4.540;2022-11-20T13:22:26;49.23;;;30.17;;
13303;SDS011;6720;51.958;4.540;2022-11-20T13:24:52;46.63;;;28.63;;
13303;SDS011;6720;51.958;4.540;2022-11-20T13:27:19;48.43;;;30.07;;
13303;SDS011;6720;51.958;4.540;2022-11-20T13:30:32;44.73;;;29.53;;
13303;SDS011;6720;51.958;4.540;2022-11-20T13:38:06;92.23;;;49.63;;
13303;SDS011;6720;51.958;4.540;2022-11-20T13:40:32;51.60;;;29.87;;
13303;SDS011;6720;51.958;4.540;2022-11-20T13:43:15;45.63;;;28.80;;
13303;SDS011;6720;51.958;4.540;2022-11-20T13:45:53;50.37;;;29.37;;
13303;SDS011;6720;51.958;4.540;2022-11-20T13:48:20;51.57;;;29.97;;
13303;SDS011;6720;51.958;4.540;2022-11-20T13:50:56;51.67;;;29.70;;
13303;SDS011;6720;51.958;4.540;2022-11-20T13:56:12;53.37;;;31.37;;
13303;SDS011;6720;51.958;4.540;2022-11-20T13:58:53;53.57;;;30.47;;
13303;SDS011;6720;51.958;4.540;2022-11-20T14:01:58;55.70;;;33.13;;
13303;SDS011;6720;51.958;4.540;2022-11-20T14:04:35;51.23;;;30.03;;
13303;SDS011;6720;51.958;4.540;2022-11-20T14:07:05;56.43;;;34.77;;
13303;SDS011;6720;51.958;4.540;2022-11-20T14:09:32;52.10;;;30.23;;
13303;SDS011;6720;51.958;4.540;2022-11-20T14:11:59;63.37;;;35.30;;
13303;SDS011;6720;51.958;4.540;2022-11-20T14:14:26;62.20;;;35.37;;
13303;SDS011;6720;51.958;4.540;2022-11-20T14:17:04;59.80;;;32.33;;
13303;SDS011;6720;51.958;4.540;2022-11-20T14:19:51;51.67;;;30.20;;
13303;SDS011;6720;51.958;4.540;2022-11-20T14:22:25;59.00;;;32.37;;
13303;SDS011;6720;51.958;4.540;2022-11-20T14:25:01;58.77;;;30.30;;
13303;SDS011;6720;51.958;4.540;2022-11-20T14:27:27;52.33;;;30.03;;
13303;SDS011;6720;51.958;4.540;2022-11-20T14:29:52;59.13;;;31.47;;
13303;SDS011;6720;51.958;4.540;2022-11-20T14:32:19;63.90;;;36.90;;
13303;SDS011;6720;51.958;4.540;2022-11-20T14:34:47;57.73;;;31.80;;
13303;SDS011;6720;51.958;4.540;2022-11-20T14:37:19;55.17;;;30.87;;
13303;SDS011;6720;51.958;4.540;2022-11-20T14:39:52;53.43;;;28.77;;
13303;SDS011;6720;51.958;4.540;2022-11-20T14:42:23;56.17;;;32.17;;
13303;SDS011;6720;51.958;4.540;2022-11-20T14:44:50;56.20;;;31.07;;
13303;SDS011;6720;51.958;4.540;2022-11-20T14:47:21;62.70;;;33.20;;
13303;SDS011;6720;51.958;4.540;2022-11-20T14:49:50;66.37;;;35.23;;
13303;SDS011;6720;51.958;4.540;2022-11-20T14:52:18;59.10;;;32.13;;
13303;SDS011;6720;51.958;4.540;2022-11-20T14:54:48;54.63;;;30.40;;
13303;SDS011;6720;51.958;4.540;2022-11-20T14:59:49;56.30;;;30.50;;
13303;SDS011;6720;51.958;4.540;2022-11-20T15:02:14;61.10;;;31.93;;
13303;SDS011;6720;51.958;4.540;2022-11-20T15:04:46;66.97;;;37.63;;
13303;SDS011;6720;51.958;4.540;2022-11-20T15:07:25;75.47;;;39.57;;
13303;SDS011;6720;51.958;4.540;2022-11-20T15:12:40;52.70;;;30.93;;
13303;SDS011;6720;51.958;4.540;2022-11-20T15:15:12;58.90;;;31.50;;
13303;SDS011;6720;51.958;4.540;2022-11-20T15:17:41;64.93;;;34.87;;
13303;SDS011;6720;51.958;4.540;2022-11-20T15:20:11;57.03;;;30.13;;
13303;SDS011;6720;51.958;4.540;2022-11-20T15:22:39;60.53;;;32.50;;
13303;SDS011;6720;51.958;4.540;2022-11-20T15:25:14;59.57;;;29.83;;
13303;SDS011;6720;51.958;4.540;2022-11-20T15:27:42;58.80;;;31.67;;
13303;SDS011;6720;51.958;4.540;2022-11-20T15:30:12;97.10;;;34.77;;
13303;SDS011;6720;51.958;4.540;2022-11-20T15:32:39;71.10;;;37.67;;
13303;SDS011;6720;51.958;4.540;2022-11-20T15:35:04;75.23;;;40.53;;
13303;SDS011;6720;51.958;4.540;2022-11-20T15:37:30;64.73;;;33.93;;
13303;SDS011;6720;51.958;4.540;2022-11-20T15:39:55;58.77;;;29.93;;
13303;SDS011;6720;51.958;4.540;2022-11-20T15:42:21;59.40;;;33.43;;
13303;SDS011;6720;51.958;4.540;2022-11-20T15:44:47;55.80;;;30.30;;
13303;SDS011;6720;51.958;4.540;2022-11-20T15:47:12;53.33;;;28.97;;
13303;SDS011;6720;51.958;4.540;2022-11-20T15:49:38;53.40;;;30.77;;
13303;SDS011;6720;51.958;4.540;2022-11-20T15:52:03;54.17;;;30.73;;
13303;SDS011;6720;51.958;4.540;2022-11-20T15:54:29;52.27;;;30.33;;
13303;SDS011;6720;51.958;4.540;2022-11-20T15:56:54;46.57;;;27.83;;
13303;SDS011;6720;51.958;4.540;2022-11-20T15:59:20;49.43;;;29.40;;
13303;SDS011;6720;51.958;4.540;2022-11-20T16:01:45;56.90;;;31.23;;
13303;SDS011;6720;51.958;4.540;2022-11-20T16:04:11;50.23;;;28.57;;
13303;SDS011;6720;51.958;4.540;2022-11-20T16:06:38;51.40;;;28.03;;